Latest Weather Observations for Montague Island

IDN60901

Issued at 5:51 pm EDT Sunday 28 February 2021 (issued every 10 minutes, with the page automatically refreshed every 10 minutes)

About weather observations | Map of Canberra area stations | Latest observations for Canberra area | Other Formats
Station Details ID: 069017 Name: MONTAGUE ISLAND LIGHTHOUSE Lat: -36.25 Lon: 150.23 Height: 52.0 m
Data from the previous 72 hours. | See also: Recent months at Montague Island
Date/Time
EDT
Temp
°C
App
Temp
°C
Dew
Point
°C
Rel
Hum
%
Delta-T
°C
Wind Press
QNH
hPa
Press
MSL
hPa
Rain since
9am
mm
Dir  Spd
km/h
Gust
km/h
Spd
kts
Gust
kts
28/05:30pm 20.7 19.9 16.1 75 2.8 SE 15 19 8 10 1011.0 1010.9 0.0
28/05:00pm 20.8 19.6 16.0 74 2.9 SE 17 20 9 11 1010.8 1010.7 0.0
28/04:30pm 21.0 20.2 16.2 74 2.9 ESE 15 20 8 11 1010.7 1010.6 0.0
28/04:00pm 21.2 20.5 16.4 74 2.9 ESE 15 19 8 10 1010.9 1010.8 0.0
28/03:30pm 21.2 19.8 16.6 75 2.8 ESE 19 24 10 13 1010.9 1010.8 0.0
28/03:00pm 21.4 20.0 16.6 74 2.9 ESE 19 22 10 12 1011.3 1011.2 0.0
28/02:30pm 21.2 19.7 16.2 73 3.0 ESE 19 22 10 12 1011.4 1011.3 0.0
28/02:00pm 21.4 20.3 16.4 73 3.0 ESE 17 19 9 10 1011.7 1011.6 0.0
28/01:30pm 21.2 20.1 16.4 74 2.9 ESE 17 20 9 11 1011.9 1011.8 0.0
28/01:00pm 21.6 21.1 16.8 74 2.9 ESE 15 19 8 10 1012.2 1012.1 0.0
28/12:30pm 21.2 20.6 16.6 75 2.8 ESE 15 17 8 9 1012.5 1012.4 0.0
28/12:00pm 21.5 21.0 16.9 75 2.8 SE 15 19 8 10 1012.7 1012.6 0.0
28/11:30am 21.1 20.4 16.5 75 2.8 SE 15 19 8 10 1012.9 1012.8 0.0
28/11:00am 21.4 21.3 17.0 76 2.7 SSE 13 17 7 9 1013.3 1013.1 0.0
28/10:30am 21.3 21.3 17.1 77 2.6 SSE 13 17 7 9 1013.4 1013.2 0.0
28/10:00am 22.0 22.0 18.0 78 2.5 S 15 20 8 11 1013.4 1013.2 0.0
28/09:30am 20.6 20.4 17.6 83 1.8 SSW 15 19 8 10 1013.3 1013.1 0.0
28/09:00am 20.4 20.3 17.8 85 1.6 SW 15 19 8 10 1013.3 1013.1 0.0
28/08:30am 19.8 19.3 17.8 88 1.2 SW 17 20 9 11 1013.2 1013.0 0.0
28/08:00am 18.6 17.4 17.1 91 0.9 SW 19 22 10 12 1013.1 1012.9 0.0
28/07:30am 18.5 17.7 17.0 91 0.9 SW 17 20 9 11 1012.7 1012.6 0.0
28/07:00am 18.7 17.9 17.2 91 0.9 SW 17 20 9 11 1012.4 1012.3 0.0
28/06:30am 18.9 18.9 17.2 90 1.0 WSW 13 19 7 10 1012.2 1012.1 0.0
28/06:00am 19.0 18.8 17.5 91 0.9 SSW 15 19 8 10 1011.9 1011.8 0.0
28/05:30am 18.9 17.8 17.2 90 1.0 SSW 19 22 10 12 1011.4 1011.3 0.0
28/05:00am 19.1 19.1 17.2 89 1.2 SSW 13 17 7 9 1011.4 1011.3 0.0
28/04:30am 19.4 18.9 17.0 86 1.5 SW 15 20 8 11 1011.6 1011.5 0.0
28/04:00am 19.8 19.0 17.0 84 1.7 SSE 17 20 9 11 1011.6 1011.5 0.0
28/03:30am 19.8 18.6 17.0 84 1.7 SSE 19 22 10 12 1011.8 1011.7 0.0
28/03:00am 20.0 18.9 17.2 84 1.7 SE 19 22 10 12 1011.8 1011.7 0.0
28/02:30am 19.8 19.0 17.0 84 1.7 SE 17 20 9 11 1011.7 1011.6 0.0
28/02:00am 20.0 18.9 17.2 84 1.7 SE 19 22 10 12 1011.9 1011.8 0.0
28/01:30am 20.1 19.4 17.3 84 1.7 SE 17 19 9 10 1012.2 1012.1 0.0
28/01:00am 20.4 19.7 17.4 83 1.8 SSE 17 19 9 10 1012.3 1012.2 0.0
28/12:30am 20.2 19.4 17.0 82 1.9 SSE 17 20 9 11 1012.2 1012.1 0.0
28/12:00am 20.3 19.6 17.3 83 1.8 SE 17 20 9 11 1012.2 1012.1 0.0
 
Date/Time
EDT
Temp
°C
App
Temp
°C
Dew
Point
°C
Rel
Hum
%
Delta-T
°C
Wind Press
QNH
hPa
Press
MSL
hPa
Rain since
9am
mm
Dir  Spd
km/h
Gust
km/h
Spd
kts
Gust
kts
27/11:30pm 20.4 19.8 17.6 84 1.7 SE 17 20 9 11 1012.2 1012.1 0.0
27/11:00pm 20.4 19.8 17.6 84 1.7 SE 17 20 9 11 1012.1 1012.0 0.0
27/10:30pm 20.3 20.1 17.7 85 1.6 SE 15 19 8 10 1012.2 1012.1 0.0
27/10:00pm 20.7 19.9 17.9 84 1.7 SSE 19 20 10 11 1012.1 1012.0 0.0
27/09:30pm 20.7 19.8 17.7 83 1.9 SE 19 20 10 11 1011.9 1011.8 0.0
27/09:00pm 20.7 21.2 17.5 82 2.0 SSE 11 15 6 8 1011.6 1011.5 0.0
27/08:30pm 20.7 21.2 17.5 82 2.0 SE 11 15 6 8 1011.3 1011.2 0.0
27/08:00pm 20.6 20.2 17.2 81 2.1 ESE 15 17 8 9 1011.2 1011.1 0.0
27/07:30pm 20.5 20.2 16.5 78 2.4 ESE 13 15 7 8 1010.9 1010.8 0.0
27/07:00pm 20.6 20.4 16.6 78 2.4 ESE 13 15 7 8 1010.6 1010.5 0.0
27/06:30pm 20.7 21.4 16.1 75 2.8 ESE 7 9 4 5 1010.9 1010.8 0.0
27/06:00pm 20.6 21.2 15.8 74 2.9 ESE 7 9 4 5 1011.1 1011.0 0.0
27/05:30pm 20.7 21.3 15.7 73 3.0 E 7 11 4 6 1011.1 1011.0 0.0
27/05:00pm 20.5 20.3 15.7 74 2.9 E 11 17 6 9 1011.2 1011.1 0.0
27/04:30pm 20.9 20.4 15.9 73 3.0 ENE 13 17 7 9 1011.5 1011.4 0.0
27/04:00pm 21.6 20.5 16.3 72 3.2 ENE 17 20 9 11 1011.6 1011.5 0.0
27/03:30pm 20.8 18.8 15.6 72 3.1 NE 20 26 11 14 1011.9 1011.8 0.0
27/03:00pm 20.7 20.4 15.5 72 3.1 NE 11 15 6 8 1012.4 1012.3 0.0
27/02:30pm 20.7 20.2 15.0 70 3.4 NNE 11 15 6 8 1012.9 1012.8 0.0
27/02:00pm 20.6 20.7 15.4 72 3.1 NE 9 11 5 6 1012.9 1012.8 0.0
27/01:30pm 20.3 20.5 14.7 70 3.3 NE 7 13 4 7 1013.4 1013.2 0.0
27/01:00pm 20.0 20.1 14.4 70 3.3 NE 7 13 4 7 1013.6 1013.4 0.0
27/12:30pm 20.6 20.9 14.9 70 3.4 NE 7 13 4 7 1013.7 1013.5 0.0
27/12:00pm 20.4 20.3 15.0 71 3.2 NNW 9 13 5 7 1014.1 1013.9 0.0
27/11:30am 19.4 19.8 13.8 70 3.2 NE 4 9 2 5 1014.3 1014.1 0.0
27/11:00am 19.9 20.5 14.3 70 3.3 ENE 4 9 2 5 1014.2 1014.0 0.0
27/10:30am 19.2 19.7 14.0 72 3.0 NNE 4 7 2 4 1014.5 1014.3 0.0
27/10:00am 20.0 20.9 15.2 74 2.8 NW 4 9 2 5 1014.7 1014.5 0.0
27/09:30am 18.8 19.7 14.1 74 2.7 ENE 2 4 1 2 1014.6 1014.4 0.0
27/09:00am 18.7 19.7 14.4 76 2.5 WNW 2 6 1 3 1014.7 1014.5 0.0
27/08:30am 18.4 18.9 14.1 76 2.5 WNW 4 6 2 3 1014.5 1014.3 0.0
27/08:00am 18.1 18.9 13.6 75 2.6 WNW 2 6 1 3 1014.1 1013.9 0.0
27/07:30am 17.9 19.0 13.6 76 2.4 CALM 0 2 0 1 1014.1 1013.9 0.0
27/07:00am 17.8 18.5 13.5 76 2.4 WNW 2 6 1 3 1014.0 1013.8 0.0
27/06:30am 17.7 17.6 13.4 76 2.4 WNW 6 9 3 5 1014.0 1013.8 0.0
27/06:00am 17.9 17.6 13.4 75 2.5 W 7 11 4 6 1013.8 1013.6 0.0
27/05:30am 17.9 18.3 12.6 71 3.0 SE 2 4 1 2 1013.6 1013.4 0.0
27/05:00am 17.9 18.3 12.6 71 3.0 E 2 6 1 3 1013.6 1013.4 0.0
27/04:30am 17.8 18.5 12.3 70 3.1 CALM 0 2 0 1 1014.1 1013.9 0.0
27/04:00am 17.9 17.6 12.6 71 3.0 SE 6 7 3 4 1014.1 1013.9 0.0
27/03:30am 18.0 18.1 12.7 71 3.0 SSE 4 7 2 4 1014.2 1014.0 0.0
27/03:00am 18.0 17.5 12.5 70 3.1 ESE 7 11 4 6 1014.2 1014.0 0.0
27/02:30am 18.1 17.2 12.5 70 3.1 SE 9 17 5 9 1014.6 1014.4 0.0
27/02:00am 18.1 16.8 12.5 70 3.1 SE 11 15 6 8 1014.5 1014.3 0.0
27/01:30am 18.1 16.0 12.5 70 3.1 SE 15 19 8 10 1015.0 1014.8 0.0
27/01:00am 18.2 16.5 12.6 70 3.1 SSE 13 20 7 11 1015.3 1015.1 0.0
27/12:30am 18.2 16.5 12.6 70 3.1 SSE 13 17 7 9 1015.1 1014.9 0.0
27/12:00am 18.2 15.7 12.4 69 3.2 SSE 17 20 9 11 1015.2 1015.0 0.0
 
Date/Time
EDT
Temp
°C
App
Temp
°C
Dew
Point
°C
Rel
Hum
%
Delta-T
°C
Wind Press
QNH
hPa
Press
MSL
hPa
Rain since
9am
mm
Dir  Spd
km/h
Gust
km/h
Spd
kts
Gust
kts
26/11:30pm 18.3 15.9 12.7 70 3.1 SE 17 20 9 11 1015.2 1015.0 0.0
26/11:00pm 18.3 15.8 12.3 68 3.3 SSE 17 22 9 12 1015.1 1014.9 0.0
26/10:30pm 18.4 15.4 12.6 69 3.2 SSE 20 26 11 14 1015.2 1015.0 0.0
26/10:00pm 18.3 14.1 12.5 69 3.2 SE 26 30 14 16 1015.1 1014.9 0.0
26/09:30pm 18.4 13.8 12.2 67 3.4 SE 28 35 15 19 1014.4 1014.2 0.0
26/09:00pm 18.6 14.6 13.0 70 3.2 SSE 26 33 14 18 1014.8 1014.6 0.0
26/08:30pm 18.6 13.8 13.0 70 3.2 SSE 30 33 16 18 1013.8 1013.6 0.0
26/08:00pm 18.7 14.4 13.1 70 3.2 SE 28 32 15 17 1013.5 1013.3 0.0
26/07:30pm 18.7 14.8 12.2 66 3.6 SSE 24 30 13 16 1013.1 1012.9 0.0
26/07:00pm 18.9 14.8 12.6 67 3.5 SSE 26 32 14 17 1012.6 1012.5 0.0
26/06:30pm 19.1 14.5 12.4 65 3.7 SSE 28 35 15 19 1012.2 1012.1 0.0
26/06:00pm 18.9 14.2 11.9 64 3.9 SE 28 33 15 18 1012.0 1011.9 0.0
26/05:30pm 18.9 14.0 12.4 66 3.6 SE 30 37 16 20 1011.7 1011.6 0.0
26/05:00pm 19.1 13.3 12.6 66 3.7 SE 35 39 19 21 1011.3 1011.2 0.0
26/04:30pm 19.6 14.2 12.1 62 4.2 SSE 32 37 17 20 1010.9 1010.8 0.0
26/04:00pm 19.8 14.1 11.3 58 4.7 SSE 32 35 17 19 1010.5 1010.3 0.0
26/03:30pm 20.1 15.9 12.3 61 4.4 SSE 26 32 14 17 1010.7 1010.6 0.0
26/03:00pm 19.6 15.0 10.9 57 4.8 SSE 26 32 14 17 1010.7 1010.6 0.0
26/02:30pm 20.1 15.1 11.1 56 4.9 SSE 28 35 15 19 1010.7 1010.6 0.0
26/02:00pm 19.7 14.5 11.7 60 4.4 SSE 30 35 16 19 1010.6 1010.5 0.0
26/01:30pm 19.4 14.1 11.4 60 4.4 S 30 37 16 20 1010.8 1010.7 0.0
26/01:00pm 19.4 13.7 11.2 59 4.5 SSE 32 43 17 23 1010.8 1010.7 0.0
26/12:30pm 19.4 13.7 11.2 59 4.5 SSE 32 41 17 22 1010.9 1010.8 0.0
26/12:00pm 18.9 12.8 11.7 63 4.0 SSE 35 41 19 22 1011.0 1010.9 0.0
26/11:30am 18.9 12.9 12.2 65 3.7 S 35 44 19 24 1011.3 1011.2 0.0
26/11:00am 19.2 13.6 12.2 64 3.9 S 33 41 18 22 1011.1 1011.0 0.0
26/10:30am 19.6 14.3 13.1 66 3.7 S 33 41 18 22 1011.0 1010.9 0.0
26/10:00am 19.6 14.6 13.5 68 3.5 S 32 39 17 21 1010.7 1010.6 0.0
26/09:30am 18.4 13.5 13.7 74 2.7 S 32 39 17 21 1010.5 1010.3 0.0
26/09:00am 18.0 13.7 14.5 80 2.0 S 30 37 16 20 1010.2 1010.0 0.0
26/08:30am 18.1 13.8 14.4 79 2.1 SSE 30 35 16 19 1009.9 1009.7 0.0
26/08:00am 18.4 15.4 14.7 79 2.2 SSE 24 30 13 16 1009.7 1009.5 0.0
26/07:30am 18.0 14.1 14.5 80 2.0 SSE 28 39 15 21 1009.4 1009.2 0.0
26/07:00am 18.2 14.2 15.1 82 1.8 SSE 30 37 16 20 1009.1 1008.9 0.0
26/06:30am 18.1 13.6 14.8 81 1.9 S 32 39 17 21 1008.5 1008.3 0.0
26/06:00am 18.2 14.0 14.7 80 2.0 SSE 30 35 16 19 1008.4 1008.2 0.0
26/05:30am 18.3 14.1 14.6 79 2.1 SSE 30 35 16 19 1008.2 1008.0 0.0
26/05:00am 18.5 15.9 15.0 80 2.0 SSE 22 28 12 15 1008.1 1007.9 0.0
26/04:30am 18.7 15.5 15.2 80 2.1 SSE 26 35 14 19 1007.9 1007.7 0.0
26/04:00am 18.6 15.3 14.9 79 2.2 S 26 33 14 18 1007.7 1007.5 0.0
26/03:30am 18.8 16.6 16.0 84 1.7 SSW 22 28 12 15 1007.5 1007.3 0.0
26/03:00am 18.5 17.0 16.7 89 1.1 SSW 20 30 11 16 1007.2 1007.0 0.0
26/02:30am 18.9 15.2 16.9 88 1.2 SSW 32 39 17 21 1006.5 1006.3 0.0
26/02:00am 19.2 14.9 17.0 87 1.3 SSW 35 43 19 23 1006.3 1006.1 0.0
26/01:30am 19.1 13.0 16.3 84 1.7 SSW 43 50 23 27 1006.2 1006.0 0.0
26/01:00am 19.2 13.9 16.4 84 1.7 SSW 39 50 21 27 1006.4 1006.2 0.0
26/12:30am 19.1 13.7 16.9 87 1.3 SSW 41 50 22 27 1006.9 1006.7 0.0
26/12:00am 19.4 14.2 17.4 88 1.2 SSW 41 50 22 27 1007.0 1006.8 0.0
 
Date/Time
EDT
Temp
°C
App
Temp
°C
Dew
Point
°C
Rel
Hum
%
Delta-T
°C
Wind Press
QNH
hPa
Press
MSL
hPa
Rain since
9am
mm
Dir  Spd
km/h
Gust
km/h
Spd
kts
Gust
kts
25/11:30pm 19.5 14.0 17.6 89 1.2 SSW 43 50 23 27 1006.9 1006.7 0.0
25/11:00pm 19.9 14.8 18.6 92 0.8 SSW 43 50 23 27 1007.1 1006.9 0.0
25/10:30pm 20.2 15.8 19.2 94 0.6 SSW 41 50 22 27 1006.8 1006.6 0.0
25/10:00pm 20.4 15.8 19.7 96 0.4 SSW 43 50 23 27 1006.5 1006.3 0.0
25/09:30pm 20.8 17.9 20.0 95 0.5 SW 35 43 19 23 1006.3 1006.1 0.0
25/09:00pm 21.3 19.4 20.1 93 0.8 S 30 33 16 18 1006.1 1005.9 0.0
25/08:30pm 21.7 22.5 19.8 89 1.2 S 15 22 8 12 1005.7 1005.5 0.0
25/08:00pm 22.4 24.7 19.9 86 1.6 NNW 7 15 4 8 1005.5 1005.3 0.0
25/07:30pm 22.3 24.8 20.2 88 1.4 WNW 7 19 4 10 1005.1 1004.9 0.0
25/07:00pm 22.0 23.0 20.3 90 1.1 NNE 15 26 8 14 1005.0 1004.8 0.0
25/06:30pm 22.0 20.3 19.7 87 1.5 NE 28 35 15 19 1004.8 1004.6 0.0
25/06:00pm 22.0 21.1 19.9 88 1.4 NE 24 30 13 16 1005.0 1004.8 0.0

Latest Capital City Observations: Canberra | Sydney | Melbourne | Brisbane | Adelaide | Perth | Hobart | Darwin

Other formats

Comma delimited format used in spreadsheet applications
http://www.bom.gov.au/fwo/IDN60903/IDN60903.94939.axf

JavaScript Object Notation format (JSON) in row-major order
http://www.bom.gov.au/fwo/IDN60903/IDN60903.94939.json

Data quality

Most of these data are generated automatically and are frequently updated. Quality checks on data are not normally performed. It is possible for incorrect values to appear. Refer to information at About Latest Weather Observations and please check the disclaimer before using these data.